EGGDEFRO

Guest
Details From EGGD - Bristol International
To EFRO - Rovaniemi
Flight Number -
Tags decoded
Created
Modified
Stats Distance 1,248 nm / 2,312 km
Max Altitude 0 ft / 0 m
Waypoints 2
Social Downloads 0
Likes 0
Share VATSIM

Download

Looking for another format? Having issues loading an existing format? Contact us
Advertisement - Login to hide

Notes

Requested: EGGD EFRO

Route

EGGD EFRO

ID Type Via Altitude Latitude Longitude Leg Dist Tot Dist Heading (true) Name
O EGGD APT - 0 ft / 0 m 51.38266˚ -2.71892˚ - 0 nm - Bristol International
O EFRO APT - 0 ft / 0 m 66.56482˚ 25.83042˚ 1248 nm 1248 nm 32° / 57° Rovaniemi

Altitude Profile

Advertisement - Login to hide

Weather


0- 5 10 15 20 25 30 35+ Temperature / ° C

Clouds and Precipitation
Forecast for 2017-12-13 18:00 UTC. Updated 18 minutes ago

Ground ~20,000 ft ~40,000 ft Winds

EGGD

Details ICAO EGGD (BRS)
Name Bristol International
Region United Kingdom
Timezone Europe/London (UTC+0.0)
Stats Elevation 622 ft / 190 m (AMSL)
Location 51.382658° -2.718918°
Runways 1
Magnetic Variation 1.351° W

METAR

EGGD 131320Z 24017KT 9999 6000W -RA FEW005 BKN006 08/08 Q0993

Decode

TAF

TAF EGGD 131055Z 1312/1412 26015G25KT 9999 SCT020 TEMPO 1312/1412 27022G35KT 6000 SHRA BKN008 PROB40 TEMPO 1312/1317 3000 +SHRA BKN004 PROB30 TEMPO 1317/1320 27030G45KT 1200 +SHGS +SHRASN BKN003 PROB30 TEMPO 1320/1412 2000 SHRASN BKN004

Decode

Departure Runways

ID Width Length Bearing (true) Bearing (mag) Surface Threshold Offset Overrun Length
09 148 ft / 45 m 6,655 ft / 2,029 m 86.42° 87.77° Asphalt 0 ft / 0 m 0 ft / 0 m
27 148 ft / 45 m 6,655 ft / 2,029 m 266.44° 267.79° Asphalt 499 ft / 152 m 0 ft / 0 m

EFRO

Details ICAO EFRO (RVN)
Name Rovaniemi
Region Finland
Timezone Europe/Helsinki (UTC+2.0)
Stats Elevation 632 ft / 193 m (AMSL)
Location 66.564822° 25.830420°
Runways 1
Magnetic Variation 11.492° E

METAR

EFRO 131320Z AUTO 24012KT 9999 -SN SCT009 OVC011 M06/M08 Q0976

Decode

TAF

TAF AMD TAF AMD EFRO 131206Z 1312/1412 25009KT 9000 -SN BKN008 TEMPO 1312/1318 2000 SN BKN015 BECMG 1318/1320 BKN020 TEMPO 1320/1324 BKN008 BECMG 1406/1408 BKN004 BECMG 1409/1411 5000 -SN

Decode

Destination Runways

ID Width Length Bearing (true) Bearing (mag) Surface Threshold Offset Overrun Length
03 197 ft / 60 m 9,819 ft / 2,993 m 37.14° 25.65° Asphalt 0 ft / 0 m 235 ft / 72 m
21 197 ft / 60 m 9,819 ft / 2,993 m 217.18° 205.69° Asphalt 0 ft / 0 m 218 ft / 66 m

Approach Navaids

Runway Type Ident Frequency Range Bearing (true) Bearing (mag) Slope Elevation
21 Localiser RO 111.70 MHz 18 nm / 33 km 217.13° 205.64° - 632 ft / 193 m (AMSL)
21 Glidescope RO 111.70 MHz 10 nm / 19 km 217.16° 205.67° 3.00° 632 ft / 193 m (AMSL)
21 DME RO 111.70 MHz 18 nm / 33 km - - - 673 ft / 205 m (AMSL)

Popular Alternatives